Parsons, West Virginia
Current Conditions -  °F | °C
As of 4:51 PM on Friday 24 Oct 2014 (Local Time) from KEKN Reporting Station
Clear Clear  
Wind Chill: 58°   Ceiling: Unl
Heat Index: 58°   Visibility: 10mi
Dew Point: 37°   Wind: 6mph
Humidity: 46%   Direction: 290°WNW
Pressure: 30.04"   Gusts: NA
Location:  39.1°N, 79.68°W
Report Text: KEKN 242051Z AUTO 29005KT 10SM CLR 14/03 A3004 RMK AO2 SLP176 T01440028 55003 TSNO
Loading
Personal Weather Stations






























Interactive Weather Map
Tropical Storm Tracking
New forecast layout! Learn more

10-Day Weather Forecast

Advertisements
Track Severe Weather on mobile